Time;durP1;ratioP1;P1;durP2;ratioP2;P2;SDS_P1;SDS_P2;PMS_P1;PMS_P2;Temp;Humidity;BMP_temperature;BMP_pressure;BME280_temperature;BME280_humidity;BME280_pressure;Samples;Min_cycle;Max_cycle;Signal;HPM_P1;HPM_P2
2021/11/21 00:00:12;;;;;;;2.08;0.73;;;;;;;;;;5003579;28;20112;-80
2021/11/21 00:02:38;;;;;;;3.10;0.75;;;;;;;;;;5002624;28;20057;-78
2021/11/21 00:05:05;;;;;;;2.10;1.00;;;;;;;;;;5010651;28;20061;-79
2021/11/21 00:07:31;;;;;;;2.80;0.90;;;;;;;;;;5005152;28;20418;-77
2021/11/21 00:09:58;;;;;;;3.22;0.70;;;;;;;;;;5005463;28;20072;-78
2021/11/21 00:12:25;;;;;;;3.42;1.10;;;;;;;;;;5007502;28;20065;-79
2021/11/21 00:14:51;;;;;;;2.40;0.80;;;;;;;;;;5010516;28;20057;-78
2021/11/21 00:17:17;;;;;;;2.70;1.05;;;;;;;;;;5005082;28;20046;-77
2021/11/21 00:19:44;;;;;;;1.98;0.60;;;;;;;;;;4990212;28;20138;-79
2021/11/21 00:22:13;;;;;;;1.95;0.80;;;;;;;;;;5005474;28;20064;-80
2021/11/21 00:24:43;;;;;;;1.67;0.80;;;;;;;;;;5004086;28;20611;-79
2021/11/21 00:27:10;;;;;;;2.35;0.82;;;;;;;;;;4987162;28;20053;-80
2021/11/21 00:29:37;;;;;;;2.33;1.02;;;;;;;;;;5006864;28;20066;-79
2021/11/21 00:32:03;;;;;;;2.28;0.90;;;;;;;;;;5012078;28;20057;-80
2021/11/21 00:34:30;;;;;;;2.95;0.80;;;;;;;;;;5009232;28;21231;-78
2021/11/21 00:36:57;;;;;;;1.10;0.60;;;;;;;;;;5006836;28;20073;-80
2021/11/21 00:39:23;;;;;;;5.40;0.90;;;;;;;;;;5009919;28;20069;-79
2021/11/21 00:41:50;;;;;;;2.15;0.80;;;;;;;;;;5010171;28;20061;-79
2021/11/21 00:44:16;;;;;;;1.65;0.68;;;;;;;;;;5006729;28;20100;-79
2021/11/21 00:46:43;;;;;;;2.42;0.77;;;;;;;;;;5011221;28;20053;-80
2021/11/21 00:49:15;;;;;;;2.38;0.80;;;;;;;;;;5007531;28;20088;-77
2021/11/21 00:51:42;;;;;;;3.08;0.90;;;;;;;;;;5009125;28;20120;-79
2021/11/21 00:54:22;;;;;;;2.10;0.65;;;;;;;;;;5007286;28;20061;-80
2021/11/21 00:56:49;;;;;;;2.03;0.80;;;;;;;;;;5005262;28;20467;-79
2021/11/21 00:59:19;;;;;;;2.45;0.77;;;;;;;;;;4989811;28;20601;-79
2021/11/21 01:01:50;;;;;;;3.80;0.95;;;;;;;;;;4990277;28;20062;-78
2021/11/21 01:04:16;;;;;;;2.03;0.80;;;;;;;;;;4987549;28;20050;-77
2021/11/21 01:06:43;;;;;;;2.28;0.80;;;;;;;;;;4978175;28;20065;-78
2021/11/21 01:09:10;;;;;;;1.55;0.50;;;;;;;;;;4971762;28;20550;-79
2021/11/21 01:11:36;;;;;;;1.67;0.65;;;;;;;;;;4994491;28;20069;-78
2021/11/21 01:14:03;;;;;;;2.08;0.60;;;;;;;;;;4992014;28;20070;-79
2021/11/21 01:16:29;;;;;;;2.25;0.68;;;;;;;;;;4988655;28;20051;-78
2021/11/21 01:18:56;;;;;;;2.47;0.90;;;;;;;;;;4988482;28;20493;-78
2021/11/21 01:21:22;;;;;;;2.60;0.70;;;;;;;;;;4987971;28;20053;-78
2021/11/21 01:23:49;;;;;;;1.63;0.60;;;;;;;;;;4993042;28;20093;-78
2021/11/21 01:26:15;;;;;;;1.83;0.50;;;;;;;;;;4987910;28;20495;-78
2021/11/21 01:28:42;;;;;;;3.28;1.35;;;;;;;;;;4995830;28;20077;-77
2021/11/21 01:31:08;;;;;;;1.48;0.80;;;;;;;;;;4988208;28;20061;-77
2021/11/21 01:33:37;;;;;;;1.27;0.65;;;;;;;;;;4989056;28;20489;-79
2021/11/21 01:36:04;;;;;;;2.15;0.68;;;;;;;;;;4992980;28;20112;-77
2021/11/21 01:38:31;;;;;;;1.33;0.50;;;;;;;;;;4989246;28;20120;-77
2021/11/21 01:40:57;;;;;;;2.17;0.70;;;;;;;;;;4982111;28;20070;-79
2021/11/21 01:43:24;;;;;;;1.52;0.73;;;;;;;;;;4990938;28;20054;-79
2021/11/21 01:45:51;;;;;;;2.67;0.80;;;;;;;;;;4986538;28;20066;-78
2021/11/21 01:48:17;;;;;;;1.58;0.73;;;;;;;;;;4990923;28;20144;-76
2021/11/21 01:50:44;;;;;;;2.75;0.77;;;;;;;;;;4992202;28;20050;-77
2021/11/21 01:53:11;;;;;;;2.45;0.73;;;;;;;;;;4989104;28;20435;-79
2021/11/21 01:55:38;;;;;;;1.85;0.60;;;;;;;;;;4991700;28;20072;-79
2021/11/21 01:58:05;;;;;;;2.13;0.60;;;;;;;;;;4970597;28;20066;-79
2021/11/21 02:00:33;;;;;;;1.85;0.85;;;;;;;;;;4986675;28;20077;-77
2021/11/21 02:03:00;;;;;;;1.58;0.50;;;;;;;;;;4971675;28;20066;-80
2021/11/21 02:05:26;;;;;;;2.80;0.70;;;;;;;;;;4986320;28;20151;-78
2021/11/21 02:07:53;;;;;;;2.60;0.60;;;;;;;;;;4986988;28;20057;-78
2021/11/21 02:10:21;;;;;;;3.85;0.45;;;;;;;;;;4987473;28;20061;-78
2021/11/21 02:12:47;;;;;;;1.25;0.50;;;;;;;;;;4987312;28;20120;-78
2021/11/21 02:15:16;;;;;;;2.08;0.52;;;;;;;;;;4989924;28;20054;-78
2021/11/21 02:17:43;;;;;;;1.42;0.50;;;;;;;;;;4986726;28;20070;-77
2021/11/21 02:20:11;;;;;;;2.38;0.70;;;;;;;;;;4969676;28;20084;-78
2021/11/21 02:22:40;;;;;;;2.08;0.43;;;;;;;;;;4989351;28;20652;-79
2021/11/21 02:25:07;;;;;;;2.22;0.55;;;;;;;;;;4985341;28;20054;-79
2021/11/21 02:27:33;;;;;;;2.42;0.40;;;;;;;;;;4990853;28;20072;-79
2021/11/21 02:30:00;;;;;;;2.50;0.75;;;;;;;;;;4989500;28;20069;-79
2021/11/21 02:32:27;;;;;;;2.28;0.70;;;;;;;;;;4991668;28;20065;-78
2021/11/21 02:34:53;;;;;;;2.22;0.70;;;;;;;;;;4986989;28;20057;-78
2021/11/21 02:37:20;;;;;;;1.30;0.43;;;;;;;;;;4984969;28;22369;-79
2021/11/21 02:39:46;;;;;;;1.65;0.40;;;;;;;;;;4987206;28;20062;-78
2021/11/21 02:42:29;;;;;;;2.40;0.63;;;;;;;;;;4989537;28;20686;-78
2021/11/21 02:44:56;;;;;;;1.50;0.50;;;;;;;;;;4985405;28;20061;-79
2021/11/21 02:47:23;;;;;;;1.85;0.40;;;;;;;;;;4990309;28;20526;-80
2021/11/21 02:49:50;;;;;;;0.95;0.40;;;;;;;;;;4985572;28;20109;-79
2021/11/21 02:52:17;;;;;;;1.50;0.55;;;;;;;;;;4982847;28;20058;-79
2021/11/21 02:54:54;;;;;;;1.30;0.45;;;;;;;;;;4985821;28;20062;-80
2021/11/21 02:57:21;;;;;;;2.22;0.50;;;;;;;;;;4993482;28;22177;-79
2021/11/21 02:59:48;;;;;;;2.13;0.50;;;;;;;;;;5006138;28;20080;-79
2021/11/21 03:02:18;;;;;;;1.63;0.50;;;;;;;;;;5005230;28;20065;-79
2021/11/21 03:04:48;;;;;;;1.77;0.40;;;;;;;;;;5006246;28;20030;-79
2021/11/21 03:07:14;;;;;;;1.35;0.50;;;;;;;;;;5004972;28;20081;-79
2021/11/21 03:09:41;;;;;;;1.00;0.40;;;;;;;;;;5006251;28;20088;-79
2021/11/21 03:12:08;;;;;;;1.20;0.40;;;;;;;;;;4997886;28;20604;-80
2021/11/21 03:14:34;;;;;;;1.65;0.50;;;;;;;;;;5004066;28;20058;-81
2021/11/21 03:17:01;;;;;;;3.78;0.47;;;;;;;;;;5004965;28;20064;-78
2021/11/21 03:19:28;;;;;;;2.38;0.52;;;;;;;;;;5005607;28;20070;-80
2021/11/21 03:21:54;;;;;;;1.98;0.40;;;;;;;;;;5007752;28;20639;-80
2021/11/21 03:24:21;;;;;;;1.75;0.50;;;;;;;;;;5011694;28;20092;-80
2021/11/21 03:26:47;;;;;;;2.38;0.55;;;;;;;;;;5006640;28;20058;-80
2021/11/21 03:29:14;;;;;;;1.23;0.55;;;;;;;;;;5005082;28;20046;-80
2021/11/21 03:31:40;;;;;;;1.60;0.40;;;;;;;;;;4999800;28;20807;-80
2021/11/21 03:34:07;;;;;;;2.13;0.50;;;;;;;;;;5005104;28;20060;-81
2021/11/21 03:36:33;;;;;;;0.88;0.30;;;;;;;;;;5007904;28;20053;-80
2021/11/21 03:39:00;;;;;;;2.05;0.60;;;;;;;;;;5005791;28;20069;-78
2021/11/21 03:41:27;;;;;;;0.65;0.20;;;;;;;;;;5005904;28;20076;-79
2021/11/21 03:43:53;;;;;;;1.40;0.43;;;;;;;;;;5007479;28;20069;-79
2021/11/21 03:46:21;;;;;;;0.60;0.30;;;;;;;;;;5005258;28;20092;-81
2021/11/21 03:48:48;;;;;;;3.47;0.68;;;;;;;;;;5007014;28;20056;-80
2021/11/21 03:51:14;;;;;;;1.55;0.50;;;;;;;;;;5008038;28;20058;-79
2021/11/21 03:53:41;;;;;;;1.10;0.43;;;;;;;;;;5003944;28;20065;-80
2021/11/21 03:56:07;;;;;;;1.92;0.50;;;;;;;;;;5006344;28;20057;-81
2021/11/21 03:58:33;;;;;;;1.80;0.50;;;;;;;;;;5005988;28;20066;-79
2021/11/21 04:01:00;;;;;;;1.70;0.40;;;;;;;;;;5004717;28;20057;-80
2021/11/21 04:03:27;;;;;;;1.95;0.65;;;;;;;;;;5006509;28;20068;-78
2021/11/21 04:05:53;;;;;;;2.10;0.43;;;;;;;;;;5013068;28;20053;-80
2021/11/21 04:08:19;;;;;;;0.80;0.32;;;;;;;;;;5010698;28;20065;-80
2021/11/21 04:10:46;;;;;;;1.42;0.40;;;;;;;;;;5004983;28;20069;-80
2021/11/21 04:13:12;;;;;;;3.13;0.52;;;;;;;;;;5002601;28;20656;-80
2021/11/21 04:15:39;;;;;;;2.17;0.43;;;;;;;;;;5007182;28;20061;-80
2021/11/21 04:18:05;;;;;;;2.47;0.40;;;;;;;;;;5004873;28;20049;-81
2021/11/21 04:20:32;;;;;;;2.22;0.60;;;;;;;;;;5004147;28;20066;-78
2021/11/21 04:22:58;;;;;;;1.95;0.32;;;;;;;;;;5003389;28;20057;-80
2021/11/21 04:25:25;;;;;;;3.58;0.65;;;;;;;;;;5005901;28;20104;-80
2021/11/21 04:27:51;;;;;;;2.15;0.55;;;;;;;;;;5010324;28;20073;-79
2021/11/21 04:30:17;;;;;;;1.48;0.55;;;;;;;;;;5012448;28;20053;-80
2021/11/21 04:32:45;;;;;;;2.83;0.57;;;;;;;;;;5004929;28;20050;-79
2021/11/21 04:35:12;;;;;;;2.72;0.70;;;;;;;;;;5002948;28;20057;-79
2021/11/21 04:37:39;;;;;;;2.17;0.50;;;;;;;;;;5005352;28;20508;-81
2021/11/21 04:40:07;;;;;;;2.08;0.40;;;;;;;;;;5003305;28;20073;-79
2021/11/21 04:42:34;;;;;;;1.83;0.52;;;;;;;;;;5004738;28;20661;-80
2021/11/21 04:45:00;;;;;;;1.77;0.40;;;;;;;;;;4986195;28;20080;-80
2021/11/21 04:47:27;;;;;;;2.92;0.30;;;;;;;;;;5004360;28;20072;-79
2021/11/21 04:49:53;;;;;;;2.17;0.55;;;;;;;;;;4988248;28;20053;-80
2021/11/21 04:52:19;;;;;;;2.00;0.50;;;;;;;;;;5004866;28;20046;-79
2021/11/21 04:54:46;;;;;;;1.30;0.40;;;;;;;;;;5006733;28;20057;-80
2021/11/21 04:57:15;;;;;;;2.30;0.40;;;;;;;;;;5003484;28;20077;-79
2021/11/21 04:59:41;;;;;;;2.50;0.40;;;;;;;;;;5004737;28;20066;-80
2021/11/21 05:02:08;;;;;;;2.05;0.60;;;;;;;;;;5004135;28;20078;-80
2021/11/21 05:04:36;;;;;;;0.70;0.30;;;;;;;;;;5004954;28;20453;-79
2021/11/21 05:07:03;;;;;;;2.00;0.40;;;;;;;;;;5003205;28;20076;-80
2021/11/21 05:09:29;;;;;;;1.35;0.38;;;;;;;;;;5010646;28;20725;-79
2021/11/21 05:11:56;;;;;;;3.10;0.50;;;;;;;;;;5005030;28;20468;-79
2021/11/21 05:14:22;;;;;;;3.08;0.63;;;;;;;;;;5001373;28;20064;-79
2021/11/21 05:16:49;;;;;;;2.38;0.52;;;;;;;;;;4994317;28;20191;-80
2021/11/21 05:19:16;;;;;;;2.47;0.60;;;;;;;;;;5005399;28;20061;-80
2021/11/21 05:21:42;;;;;;;0.80;0.30;;;;;;;;;;5011113;28;20065;-79
2021/11/21 05:24:09;;;;;;;1.48;0.38;;;;;;;;;;4992710;28;20080;-79
2021/11/21 05:26:35;;;;;;;2.10;0.40;;;;;;;;;;5005011;28;20065;-80
2021/11/21 05:29:02;;;;;;;2.92;0.68;;;;;;;;;;5009275;28;20512;-80
2021/11/21 05:31:28;;;;;;;2.05;0.60;;;;;;;;;;5009837;28;20517;-80
2021/11/21 05:33:55;;;;;;;1.02;0.40;;;;;;;;;;5007512;28;20086;-79
2021/11/21 05:36:21;;;;;;;2.22;0.50;;;;;;;;;;5007364;28;21456;-80
2021/11/21 05:38:48;;;;;;;3.30;0.43;;;;;;;;;;5006916;28;20518;-80
2021/11/21 05:41:14;;;;;;;2.20;0.52;;;;;;;;;;5007726;28;20135;-80
2021/11/21 05:43:41;;;;;;;1.27;0.45;;;;;;;;;;5004017;28;20058;-80
2021/11/21 05:46:07;;;;;;;3.47;0.63;;;;;;;;;;5003361;28;20057;-79
2021/11/21 05:48:34;;;;;;;4.20;0.60;;;;;;;;;;5009349;28;20557;-79
2021/11/21 05:51:03;;;;;;;1.95;0.40;;;;;;;;;;5007617;28;20058;-80
2021/11/21 05:53:30;;;;;;;1.17;0.40;;;;;;;;;;5007418;28;20107;-80
2021/11/21 05:55:56;;;;;;;3.13;0.40;;;;;;;;;;5011495;28;20054;-81
2021/11/21 05:58:25;;;;;;;1.75;0.43;;;;;;;;;;5005507;28;20077;-80
2021/11/21 06:00:52;;;;;;;1.95;0.52;;;;;;;;;;5012014;28;20065;-80
2021/11/21 06:03:18;;;;;;;2.08;0.47;;;;;;;;;;5007389;28;20054;-81
2021/11/21 06:05:45;;;;;;;3.65;0.55;;;;;;;;;;5005904;28;20062;-80
2021/11/21 06:08:11;;;;;;;3.35;0.77;;;;;;;;;;4994659;28;20540;-80
2021/11/21 06:10:37;;;;;;;1.67;0.60;;;;;;;;;;5008002;28;20049;-79
2021/11/21 06:13:04;;;;;;;2.45;0.52;;;;;;;;;;4991531;28;20069;-79
2021/11/21 06:15:30;;;;;;;2.05;0.45;;;;;;;;;;5006707;28;20057;-79
2021/11/21 06:17:57;;;;;;;4.65;0.70;;;;;;;;;;5004654;28;20514;-82
2021/11/21 06:20:23;;;;;;;2.45;0.40;;;;;;;;;;5009573;28;20062;-79
2021/11/21 06:22:49;;;;;;;1.65;0.50;;;;;;;;;;5006213;28;20046;-80
2021/11/21 06:25:16;;;;;;;1.25;0.35;;;;;;;;;;4990181;28;20061;-79
2021/11/21 06:27:42;;;;;;;1.92;0.60;;;;;;;;;;5005491;28;20061;-80
2021/11/21 06:30:09;;;;;;;1.73;0.50;;;;;;;;;;5006192;28;20096;-81
2021/11/21 06:32:35;;;;;;;3.03;0.80;;;;;;;;;;5006750;28;20677;-80
2021/11/21 06:35:02;;;;;;;1.88;0.50;;;;;;;;;;5006881;28;20045;-80
2021/11/21 06:37:29;;;;;;;1.23;0.38;;;;;;;;;;4990299;28;20682;-80
2021/11/21 06:39:55;;;;;;;1.13;0.45;;;;;;;;;;4998007;28;20038;-79
2021/11/21 06:42:22;;;;;;;1.83;0.50;;;;;;;;;;5007241;28;22336;-80
2021/11/21 06:44:48;;;;;;;1.40;0.90;;;;;;;;;;5005364;28;20061;-80
2021/11/21 06:47:15;;;;;;;2.20;0.50;;;;;;;;;;5006029;28;20068;-80
2021/11/21 06:49:44;;;;;;;1.10;0.40;;;;;;;;;;5008056;28;20062;-80
2021/11/21 06:52:10;;;;;;;3.10;0.60;;;;;;;;;;5005723;28;20135;-80
2021/11/21 06:54:37;;;;;;;1.55;0.65;;;;;;;;;;5006261;28;20173;-80
2021/11/21 06:57:03;;;;;;;1.65;0.70;;;;;;;;;;5004124;28;20065;-80
2021/11/21 06:59:30;;;;;;;1.52;0.35;;;;;;;;;;5009327;28;20065;-80
2021/11/21 07:01:56;;;;;;;1.42;0.30;;;;;;;;;;5003984;28;20050;-81
2021/11/21 07:04:22;;;;;;;1.65;0.43;;;;;;;;;;4991616;28;20549;-80
2021/11/21 07:06:49;;;;;;;1.92;0.38;;;;;;;;;;5004952;28;20114;-79
2021/11/21 07:09:17;;;;;;;2.00;0.50;;;;;;;;;;5004849;28;20065;-79
2021/11/21 07:11:44;;;;;;;1.58;0.50;;;;;;;;;;5007593;28;20065;-79
2021/11/21 07:14:11;;;;;;;3.55;0.50;;;;;;;;;;5005209;28;20383;-80
2021/11/21 07:16:38;;;;;;;2.35;0.45;;;;;;;;;;5004144;28;20469;-80
2021/11/21 07:19:05;;;;;;;1.05;0.30;;;;;;;;;;5004422;28;20379;-80
2021/11/21 07:21:32;;;;;;;2.08;0.32;;;;;;;;;;5003480;28;20058;-79
2021/11/21 07:23:58;;;;;;;0.57;0.30;;;;;;;;;;5007305;28;20065;-80
2021/11/21 07:26:24;;;;;;;1.73;0.30;;;;;;;;;;5008418;28;20438;-80
2021/11/21 07:28:52;;;;;;;1.17;0.45;;;;;;;;;;5009653;28;20069;-79
2021/11/21 07:31:19;;;;;;;2.90;0.47;;;;;;;;;;5007110;28;20060;-80
2021/11/21 07:33:45;;;;;;;1.80;0.32;;;;;;;;;;5005371;28;20053;-79
2021/11/21 07:36:12;;;;;;;0.95;0.30;;;;;;;;;;5004860;28;20058;-78
2021/11/21 07:38:39;;;;;;;0.82;0.30;;;;;;;;;;5011277;28;20064;-79
2021/11/21 07:41:06;;;;;;;1.75;0.20;;;;;;;;;;5005686;28;20061;-80
2021/11/21 07:43:32;;;;;;;2.17;0.35;;;;;;;;;;5008012;28;20061;-80
2021/11/21 07:46:00;;;;;;;1.17;0.40;;;;;;;;;;5009865;28;20060;-79
2021/11/21 07:48:29;;;;;;;2.55;0.57;;;;;;;;;;5002891;28;20563;-79
2021/11/21 07:50:56;;;;;;;0.95;0.35;;;;;;;;;;5003441;28;20551;-79
2021/11/21 07:53:22;;;;;;;1.90;0.40;;;;;;;;;;5002866;28;21220;-80
2021/11/21 07:55:49;;;;;;;1.52;0.38;;;;;;;;;;5012820;28;20068;-79
2021/11/21 07:58:15;;;;;;;1.40;0.35;;;;;;;;;;4980295;28;20132;-79
2021/11/21 08:00:42;;;;;;;2.63;0.40;;;;;;;;;;5005332;28;20089;-79
2021/11/21 08:03:08;;;;;;;2.03;0.50;;;;;;;;;;5003351;28;20486;-79
2021/11/21 08:05:35;;;;;;;2.58;0.40;;;;;;;;;;5007268;28;20033;-88
2021/11/21 08:08:02;;;;;;;1.65;0.40;;;;;;;;;;5010591;28;20060;-80
2021/11/21 08:10:28;;;;;;;3.08;0.60;;;;;;;;;;5004479;28;20050;-86
2021/11/21 08:12:55;;;;;;;3.22;0.82;;;;;;;;;;5007108;28;20061;-80
2021/11/21 08:15:21;;;;;;;1.55;0.50;;;;;;;;;;5006746;28;20370;-81
2021/11/21 08:17:47;;;;;;;1.20;0.50;;;;;;;;;;5010645;28;20053;-81
2021/11/21 08:20:14;;;;;;;3.88;0.60;;;;;;;;;;5011502;28;20069;-81
2021/11/21 08:22:40;;;;;;;4.05;0.90;;;;;;;;;;4988000;28;20505;-82
2021/11/21 08:25:08;;;;;;;2.70;1.08;;;;;;;;;;5001271;28;20033;-81
2021/11/21 08:27:34;;;;;;;3.15;1.20;;;;;;;;;;5005294;28;20551;-81
2021/11/21 08:30:01;;;;;;;2.50;1.10;;;;;;;;;;5005573;28;20442;-81
2021/11/21 08:32:27;;;;;;;2.10;1.05;;;;;;;;;;5004059;28;20060;-81
2021/11/21 08:34:54;;;;;;;1.75;0.98;;;;;;;;;;5002951;28;20062;-85
2021/11/21 08:37:20;;;;;;;2.63;0.95;;;;;;;;;;5004992;28;20073;-84
2021/11/21 08:39:47;;;;;;;2.90;1.05;;;;;;;;;;5000133;28;20054;-81
2021/11/21 08:42:13;;;;;;;2.28;0.77;;;;;;;;;;5005093;28;20290;-82
2021/11/21 08:44:39;;;;;;;3.13;1.40;;;;;;;;;;5001394;28;20057;-84
2021/11/21 08:47:06;;;;;;;8.68;2.53;;;;;;;;;;5002522;28;20761;-83
2021/11/21 08:49:32;;;;;;;9.00;2.75;;;;;;;;;;5003075;28;20066;-83
2021/11/21 08:51:59;;;;;;;11.55;3.03;;;;;;;;;;5003896;28;20054;-83
2021/11/21 08:54:25;;;;;;;6.80;2.53;;;;;;;;;;5006327;28;20061;-83
2021/11/21 08:56:52;;;;;;;11.77;2.78;;;;;;;;;;5009262;28;20123;-83
2021/11/21 08:59:19;;;;;;;12.57;3.10;;;;;;;;;;5016602;28;20448;-83
2021/11/21 09:01:46;;;;;;;8.63;2.88;;;;;;;;;;5012832;28;20061;-83
2021/11/21 09:04:13;;;;;;;10.40;3.03;;;;;;;;;;5009439;28;20056;-84
2021/11/21 09:06:40;;;;;;;10.75;2.70;;;;;;;;;;5017059;28;20056;-83
2021/11/21 09:09:09;;;;;;;7.25;2.30;;;;;;;;;;5016983;28;20081;-82
2021/11/21 09:11:36;;;;;;;9.73;2.55;;;;;;;;;;5011490;28;20088;-82
2021/11/21 09:14:03;;;;;;;9.00;2.35;;;;;;;;;;5009089;28;20065;-85
2021/11/21 09:16:30;;;;;;;6.72;2.13;;;;;;;;;;5009886;28;20060;-79
2021/11/21 09:18:57;;;;;;;7.82;1.80;;;;;;;;;;5008852;28;20053;-78
2021/11/21 09:21:23;;;;;;;8.77;2.28;;;;;;;;;;5010494;28;20089;-81
2021/11/21 09:23:50;;;;;;;5.72;1.88;;;;;;;;;;5012171;28;20540;-80
2021/11/21 09:26:16;;;;;;;8.43;2.10;;;;;;;;;;5003258;28;20058;-79
2021/11/21 09:28:43;;;;;;;7.55;2.30;;;;;;;;;;5002042;28;20062;-80
2021/11/21 09:31:09;;;;;;;8.63;2.13;;;;;;;;;;5007760;28;21361;-80
2021/11/21 09:33:36;;;;;;;5.47;1.60;;;;;;;;;;5011741;28;20074;-79
2021/11/21 09:36:05;;;;;;;7.93;2.00;;;;;;;;;;5008243;28;20489;-79
2021/11/21 09:38:31;;;;;;;8.27;1.90;;;;;;;;;;5008649;28;20056;-79
2021/11/21 09:40:57;;;;;;;5.07;1.67;;;;;;;;;;5006672;28;20097;-79
2021/11/21 09:43:24;;;;;;;6.78;2.00;;;;;;;;;;5009682;28;20538;-80
2021/11/21 09:45:50;;;;;;;6.20;2.00;;;;;;;;;;5004135;28;20070;-79
2021/11/21 09:48:17;;;;;;;6.40;1.70;;;;;;;;;;5007870;28;20054;-80
2021/11/21 09:50:44;;;;;;;4.80;1.50;;;;;;;;;;5009515;28;20053;-79
2021/11/21 09:53:11;;;;;;;5.82;1.50;;;;;;;;;;5007357;28;20073;-80
2021/11/21 09:55:38;;;;;;;5.80;1.65;;;;;;;;;;5011069;28;20447;-79
2021/11/21 09:58:05;;;;;;;4.40;1.60;;;;;;;;;;5007252;28;20081;-79
2021/11/21 10:00:32;;;;;;;3.88;1.50;;;;;;;;;;5011844;28;20073;-79
2021/11/21 10:03:01;;;;;;;4.47;1.13;;;;;;;;;;5009150;28;20057;-79
2021/11/21 10:05:28;;;;;;;5.40;1.63;;;;;;;;;;5009336;28;20163;-80
2021/11/21 10:08:02;;;;;;;2.50;1.20;;;;;;;;;;5009538;28;20037;-81
2021/11/21 10:10:34;;;;;;;5.85;1.27;;;;;;;;;;5007851;28;22230;-80
2021/11/21 10:13:00;;;;;;;3.92;1.40;;;;;;;;;;5008178;28;20085;-80
2021/11/21 10:15:27;;;;;;;5.07;1.20;;;;;;;;;;5009131;28;20058;-80
2021/11/21 10:17:57;;;;;;;4.82;1.10;;;;;;;;;;5010433;28;20038;-80
2021/11/21 10:20:24;;;;;;;3.47;1.20;;;;;;;;;;4987592;28;21378;-79
2021/11/21 10:22:51;;;;;;;3.17;1.08;;;;;;;;;;4998761;28;20489;-80
2021/11/21 10:25:42;;;;;;;3.97;1.00;;;;;;;;;;5007288;28;20088;-78
2021/11/21 10:28:16;;;;;;;3.00;1.00;;;;;;;;;;5007162;28;20516;-80
2021/11/21 10:30:55;;;;;;;3.45;1.30;;;;;;;;;;5003213;28;20053;-79
2021/11/21 10:33:23;;;;;;;2.88;0.80;;;;;;;;;;5006411;28;20092;-80
2021/11/21 10:36:05;;;;;;;4.00;1.13;;;;;;;;;;5008572;28;20164;-79
2021/11/21 10:38:42;;;;;;;4.18;1.00;;;;;;;;;;5002466;28;21550;-80
2021/11/21 10:41:10;;;;;;;3.00;0.98;;;;;;;;;;5010287;28;20207;-80
2021/11/21 10:43:41;;;;;;;3.88;1.17;;;;;;;;;;5008142;28;20029;-81
2021/11/21 10:46:19;;;;;;;2.85;1.10;;;;;;;;;;5010584;28;20112;-79
2021/11/21 10:48:45;;;;;;;4.18;1.35;;;;;;;;;;5006460;28;20062;-78
2021/11/21 10:51:22;;;;;;;3.22;0.82;;;;;;;;;;5007845;28;20061;-78
2021/11/21 10:53:49;;;;;;;1.98;0.73;;;;;;;;;;5009349;28;20119;-79
2021/11/21 10:56:16;;;;;;;2.63;1.00;;;;;;;;;;5003906;28;20205;-79
2021/11/21 10:58:49;;;;;;;2.83;0.90;;;;;;;;;;5011983;28;20069;-80
2021/11/21 11:01:20;;;;;;;3.33;0.80;;;;;;;;;;5007948;28;20062;-80
2021/11/21 11:04:06;;;;;;;3.28;0.80;;;;;;;;;;5007972;28;20131;-79
2021/11/21 11:06:33;;;;;;;3.10;1.00;;;;;;;;;;5007080;28;20026;-79
2021/11/21 11:09:34;;;;;;;1.60;0.75;;;;;;;;;;5007969;28;20042;-77
2021/11/21 11:12:01;;;;;;;2.80;0.75;;;;;;;;;;4965055;28;20031;-78
2021/11/21 11:14:27;;;;;;;2.33;0.68;;;;;;;;;;4996508;28;20084;-80
2021/11/21 11:16:55;;;;;;;3.88;0.90;;;;;;;;;;5009658;28;20067;-79
2021/11/21 11:19:24;;;;;;;2.78;0.95;;;;;;;;;;5007415;28;20081;-79
2021/11/21 11:21:51;;;;;;;1.92;0.80;;;;;;;;;;5009311;28;20130;-79
2021/11/21 11:24:22;;;;;;;1.88;0.60;;;;;;;;;;5006802;28;20112;-80
2021/11/21 11:26:49;;;;;;;;;;;;;;;;;;5007546;28;20454;-80
2021/11/21 11:29:21;;;;;;;1.52;0.50;;;;;;;;;;5011512;28;19949;-79
2021/11/21 11:31:49;;;;;;;4.18;1.05;;;;;;;;;;5007960;28;20443;-80
2021/11/21 11:34:35;;;;;;;2.78;0.60;;;;;;;;;;5007624;28;20056;-79
2021/11/21 11:37:03;;;;;;;4.07;0.70;;;;;;;;;;4999687;28;20091;-79
2021/11/21 11:39:48;;;;;;;0.93;0.55;;;;;;;;;;4985553;28;20454;-79
2021/11/21 11:42:34;;;;;;;1.92;0.60;;;;;;;;;;5007536;28;20065;-79
2021/11/21 11:45:00;;;;;;;1.90;0.68;;;;;;;;;;5005940;28;20451;-80
2021/11/21 11:47:27;;;;;;;1.10;0.47;;;;;;;;;;5008683;28;20121;-79
2021/11/21 11:49:54;;;;;;;2.47;0.70;;;;;;;;;;5005533;28;20081;-80
2021/11/21 11:52:39;;;;;;;2.70;0.80;;;;;;;;;;5007661;28;20105;-80
2021/11/21 11:55:06;;;;;;;2.05;0.60;;;;;;;;;;5005345;28;20452;-80
2021/11/21 11:57:34;;;;;;;2.70;0.60;;;;;;;;;;4997831;28;20136;-80
2021/11/21 12:00:40;;;;;;;2.35;0.50;;;;;;;;;;4986077;28;20065;-80
2021/11/21 12:03:25;;;;;;;1.23;0.55;;;;;;;;;;4939336;28;20527;-79
2021/11/21 12:06:04;;;;;;;2.00;0.50;;;;;;;;;;4985582;28;20124;-80
2021/11/21 12:08:30;;;;;;;3.28;0.60;;;;;;;;;;4986825;28;20061;-80
2021/11/21 12:10:57;;;;;;;3.53;0.57;;;;;;;;;;4994838;28;20089;-80
2021/11/21 12:13:35;;;;;;;2.92;0.80;;;;;;;;;;4988419;28;20466;-84
2021/11/21 12:16:03;;;;;;;2.90;0.73;;;;;;;;;;4989608;28;20143;-81
2021/11/21 12:18:48;;;;;;;1.38;0.52;;;;;;;;;;4968733;28;20513;-80
2021/11/21 12:21:32;;;;;;;3.85;1.02;;;;;;;;;;4981627;28;20113;-79
2021/11/21 12:23:58;;;;;;;2.47;0.60;;;;;;;;;;4988478;28;20058;-83
2021/11/21 12:26:36;;;;;;;1.98;0.57;;;;;;;;;;4969324;28;20098;-82
2021/11/21 12:29:25;;;;;;;3.15;0.57;;;;;;;;;;4971134;28;20058;-85
2021/11/21 12:31:53;;;;;;;1.67;0.60;;;;;;;;;;4977603;28;20608;-83
2021/11/21 12:34:35;;;;;;;4.18;0.70;;;;;;;;;;4983105;28;20868;-85
2021/11/21 12:37:13;;;;;;;1.27;0.57;;;;;;;;;;4985185;28;20089;-84
2021/11/21 12:39:41;;;;;;;1.58;0.57;;;;;;;;;;4986350;28;20185;-85
2021/11/21 12:42:11;;;;;;;1.75;0.70;;;;;;;;;;4986863;28;20070;-83
2021/11/21 12:44:41;;;;;;;1.45;0.45;;;;;;;;;;4985424;28;20045;-83
2021/11/21 12:47:09;;;;;;;2.75;0.55;;;;;;;;;;4990915;28;20065;-85
2021/11/21 12:49:36;;;;;;;1.17;0.50;;;;;;;;;;4986834;28;20066;-84
2021/11/21 12:52:07;;;;;;;0.75;0.30;;;;;;;;;;4985620;28;20030;-85
2021/11/21 12:54:34;;;;;;;1.70;0.38;;;;;;;;;;4986802;28;20165;-84
2021/11/21 12:57:01;;;;;;;0.93;0.40;;;;;;;;;;4988993;28;20084;-87
2021/11/21 12:59:48;;;;;;;3.38;0.40;;;;;;;;;;5004190;28;20062;-84
2021/11/21 13:02:19;;;;;;;2.15;0.50;;;;;;;;;;5005470;28;20073;-83
2021/11/21 13:04:48;;;;;;;1.73;0.40;;;;;;;;;;5002877;28;20457;-85
2021/11/21 13:07:24;;;;;;;1.33;0.50;;;;;;;;;;5001455;28;20100;-88
2021/11/21 13:09:57;;;;;;;1.83;0.40;;;;;;;;;;5007912;28;20065;-86
2021/11/21 13:12:27;;;;;;;3.35;0.40;;;;;;;;;;5007064;28;21226;-88
2021/11/21 13:14:58;;;;;;;1.45;0.43;;;;;;;;;;4993097;28;20104;-84
2021/11/21 13:17:24;;;;;;;2.38;0.47;;;;;;;;;;5007705;28;20569;-86
2021/11/21 13:20:11;;;;;;;1.55;0.60;;;;;;;;;;5006084;28;20054;-83
2021/11/21 13:22:47;;;;;;;0.35;0.30;;;;;;;;;;5004574;28;21345;-84
2021/11/21 13:25:26;;;;;;;2.25;0.55;;;;;;;;;;5007600;28;20041;-85
2021/11/21 13:27:53;;;;;;;4.60;0.52;;;;;;;;;;5006147;28;20057;-85
2021/11/21 13:30:21;;;;;;;1.85;0.40;;;;;;;;;;5007805;28;20041;-86
2021/11/21 13:32:47;;;;;;;0.63;0.40;;;;;;;;;;5007291;28;20062;-87
2021/11/21 13:35:20;;;;;;;2.40;0.40;;;;;;;;;;5007213;28;20057;-85
2021/11/21 13:37:46;;;;;;;2.00;0.63;;;;;;;;;;5005420;28;20061;-89
2021/11/21 13:40:14;;;;;;;1.05;0.30;;;;;;;;;;5006473;28;20498;-87
2021/11/21 13:42:40;;;;;;;0.98;0.22;;;;;;;;;;5008199;28;20066;-86
2021/11/21 13:45:07;;;;;;;1.20;0.50;;;;;;;;;;5006785;28;20050;-85
2021/11/21 13:47:33;;;;;;;1.70;0.40;;;;;;;;;;5005360;28;20057;-91
2021/11/21 13:50:00;;;;;;;2.40;0.50;;;;;;;;;;5007713;28;20119;-89
2021/11/21 13:52:31;;;;;;;0.82;0.22;;;;;;;;;;5019048;28;20068;-89
2021/11/21 13:55:05;;;;;;;1.75;0.40;;;;;;;;;;5010620;28;20058;-88
2021/11/21 13:57:38;;;;;;;1.58;0.35;;;;;;;;;;5008253;28;20073;-86
2021/11/21 14:00:09;;;;;;;1.80;0.45;;;;;;;;;;5007069;28;20057;-86
2021/11/21 14:02:41;;;;;;;0.57;0.23;;;;;;;;;;5009220;28;20061;-89
2021/11/21 14:05:09;;;;;;;0.70;0.30;;;;;;;;;;4992899;28;20416;-88
2021/11/21 14:07:36;;;;;;;1.35;0.57;;;;;;;;;;5012095;28;20041;-88
2021/11/21 14:10:05;;;;;;;1.48;0.30;;;;;;;;;;5005534;28;20443;-90
2021/11/21 14:12:33;;;;;;;1.02;0.50;;;;;;;;;;5011256;28;20053;-90
2021/11/21 14:15:02;;;;;;;1.83;0.60;;;;;;;;;;5006494;28;20066;-90
2021/11/21 14:17:28;;;;;;;0.95;0.30;;;;;;;;;;5009140;28;20057;-91
2021/11/21 14:19:55;;;;;;;0.50;0.30;;;;;;;;;;5014698;28;20038;-93
2021/11/21 14:22:28;;;;;;;1.35;0.40;;;;;;;;;;5010903;28;20065;-92
2021/11/21 14:24:56;;;;;;;1.17;0.40;;;;;;;;;;5009136;28;20058;-88
2021/11/21 14:27:27;;;;;;;3.47;0.50;;;;;;;;;;5009210;28;20034;-81
2021/11/21 14:30:04;;;;;;;1.70;0.30;;;;;;;;;;5002609;28;20030;-80
2021/11/21 14:32:32;;;;;;;0.80;0.40;;;;;;;;;;5005429;28;20145;-81
2021/11/21 14:34:58;;;;;;;2.42;0.45;;;;;;;;;;5005982;28;20455;-79
2021/11/21 14:37:25;;;;;;;0.55;0.28;;;;;;;;;;5008428;28;20864;-81
2021/11/21 14:39:53;;;;;;;1.33;0.43;;;;;;;;;;5003967;28;20054;-81
2021/11/21 14:42:27;;;;;;;1.77;0.40;;;;;;;;;;5004037;28;20136;-81
2021/11/21 14:44:54;;;;;;;2.83;0.45;;;;;;;;;;5008330;28;20057;-81
2021/11/21 14:47:21;;;;;;;3.05;0.60;;;;;;;;;;5008472;28;20497;-81
2021/11/21 14:49:50;;;;;;;0.88;0.40;;;;;;;;;;5008746;28;20057;-82